Time;durP1;ratioP1;P1;durP2;ratioP2;P2;SDS_P1;SDS_P2;PMS_P1;PMS_P2;Temp;Humidity;BMP_temperature;BMP_pressure;BME280_temperature;BME280_humidity;BME280_pressure;Samples;Min_cycle;Max_cycle;Signal;HPM_P1;HPM_P2
2021/03/03 00:01:13;;;;;;;33.67;20.88;;;;;;;8.47;57.98;102644.98;1774384;80;21622;-46
2021/03/03 00:03:42;;;;;;;37.28;23.38;;;;;;;8.45;58.28;102652.72;1757453;81;21168;-46
2021/03/03 00:06:11;;;;;;;38.53;22.60;;;;;;;8.47;58.32;102663.14;1757180;81;21133;-46
2021/03/03 00:08:40;;;;;;;39.60;23.52;;;;;;;8.48;58.16;102649.30;1771414;81;21149;-46
2021/03/03 00:11:09;;;;;;;38.48;23.18;;;;;;;8.48;58.01;102658.39;1760711;81;21192;-46
2021/03/03 00:13:37;;;;;;;35.30;22.35;;;;;;;8.46;57.80;102658.78;1759617;81;21156;-46
2021/03/03 00:16:06;;;;;;;34.50;22.13;;;;;;;8.46;57.80;102662.67;1760255;81;21160;-46
2021/03/03 00:18:34;;;;;;;36.10;22.45;;;;;;;8.43;57.73;102661.34;1767349;80;21560;-46
2021/03/03 00:21:03;;;;;;;36.77;21.65;;;;;;;8.42;57.66;102655.69;1754403;80;21683;-46
2021/03/03 00:23:31;;;;;;;36.00;21.87;;;;;;;8.41;57.09;102668.23;1765694;81;21136;-46
2021/03/03 00:26:00;;;;;;;33.92;21.42;;;;;;;8.43;57.01;102665.23;1771346;81;21294;-45
2021/03/03 00:28:29;;;;;;;29.60;19.67;;;;;;;8.46;56.79;102667.86;1767284;81;21738;-46
2021/03/03 00:30:58;;;;;;;29.55;19.60;;;;;;;8.48;56.64;102660.98;1759495;80;21196;-46
2021/03/03 00:33:26;;;;;;;30.90;19.37;;;;;;;8.53;56.72;102665.84;1762394;81;21148;-46
2021/03/03 00:35:55;;;;;;;32.70;20.02;;;;;;;8.56;56.64;102668.47;1773183;81;21143;-46
2021/03/03 00:38:24;;;;;;;31.00;18.17;;;;;;;8.56;56.73;102672.36;1758623;81;21184;-46
2021/03/03 00:40:53;;;;;;;33.55;20.60;;;;;;;8.57;56.90;102670.23;1777228;81;21170;-46
2021/03/03 00:43:22;;;;;;;30.85;19.65;;;;;;;8.57;56.88;102667.63;1766287;81;21154;-46
2021/03/03 00:45:50;;;;;;;35.23;21.07;;;;;;;8.54;56.88;102664.97;1754859;81;21651;-46
2021/03/03 00:48:19;;;;;;;30.95;19.60;;;;;;;8.48;56.96;102659.69;1773599;81;21144;-46
2021/03/03 00:50:48;;;;;;;34.80;21.00;;;;;;;8.42;57.23;102667.36;1761586;81;21136;-47
2021/03/03 00:53:16;;;;;;;30.90;18.75;;;;;;;8.41;57.44;102665.63;1762323;81;21299;-48
2021/03/03 00:55:52;;;;;;;31.37;19.15;;;;;;;8.42;57.39;102668.66;1758527;81;21192;-47
2021/03/03 00:58:23;;;;;;;34.03;19.65;;;;;;;8.44;57.23;102665.67;1769357;80;21165;-47
2021/03/03 01:01:01;;;;;;;30.27;18.12;;;;;;;8.50;57.34;102670.55;1772284;79;22978;-47
2021/03/03 01:03:31;;;;;;;28.73;18.23;;;;;;;8.49;57.33;102671.83;1735998;82;21136;-46
2021/03/03 01:06:01;;;;;;;27.85;18.73;;;;;;;8.51;57.30;102670.13;1745014;82;21540;-46
2021/03/03 01:08:31;;;;;;;30.70;19.17;;;;;;;8.51;57.29;102667.53;1738646;82;21156;-46
2021/03/03 01:11:00;;;;;;;34.43;19.87;;;;;;;8.53;57.19;102671.03;1738857;82;21167;-47
2021/03/03 01:13:30;;;;;;;28.92;18.87;;;;;;;8.53;57.16;102671.88;1737544;82;21149;-46
2021/03/03 01:15:58;;;;;;;30.30;19.10;;;;;;;8.50;57.38;102678.75;1740210;82;21193;-47
2021/03/03 01:18:30;;;;;;;34.08;21.23;;;;;;;8.48;57.55;102667.47;1741042;82;21136;-46
2021/03/03 01:20:58;;;;;;;36.35;22.67;;;;;;;8.46;57.56;102671.76;1734047;82;21592;-46
2021/03/03 01:23:26;;;;;;;33.18;19.92;;;;;;;8.44;57.60;102676.92;1744602;82;21270;-46
2021/03/03 01:25:55;;;;;;;36.70;21.50;;;;;;;8.39;57.96;102673.81;1731934;82;21326;-46
2021/03/03 01:28:23;;;;;;;34.70;22.70;;;;;;;8.35;58.22;102677.17;1742675;82;21137;-47
2021/03/03 01:30:54;;;;;;;35.30;22.77;;;;;;;8.28;58.31;102675.33;1730690;82;21188;-46
2021/03/03 01:33:28;;;;;;;35.88;21.37;;;;;;;8.24;58.42;102670.48;1740161;82;21322;-46
2021/03/03 01:35:56;;;;;;;30.02;20.02;;;;;;;8.21;58.08;102674.30;1737760;82;21576;-46
2021/03/03 01:38:25;;;;;;;29.98;19.42;;;;;;;8.17;58.01;102677.27;1738707;82;21172;-46
2021/03/03 01:40:55;;;;;;;32.90;20.37;;;;;;;8.14;57.92;102668.54;1737521;82;21116;-47
2021/03/03 01:43:24;;;;;;;34.55;20.60;;;;;;;8.12;58.04;102677.59;1708618;82;21156;-47
2021/03/03 01:45:53;;;;;;;32.45;19.67;;;;;;;8.09;58.09;102678.85;1736891;82;21164;-46
2021/03/03 01:48:22;;;;;;;31.82;18.70;;;;;;;8.06;58.22;102683.97;1742232;82;21141;-46
2021/03/03 01:50:50;;;;;;;31.48;19.90;;;;;;;8.04;58.33;102684.77;1731904;82;21290;-46
2021/03/03 01:53:19;;;;;;;30.80;19.57;;;;;;;8.03;58.35;102693.41;1739033;82;21743;-46
2021/03/03 01:55:48;;;;;;;31.42;18.80;;;;;;;7.98;58.46;102689.42;1733417;82;21735;-46
2021/03/03 01:58:16;;;;;;;31.40;19.05;;;;;;;7.99;58.61;102692.48;1742127;82;21335;-46
2021/03/03 02:00:45;;;;;;;32.28;19.15;;;;;;;8.00;58.70;102687.73;1731337;81;21358;-46
2021/03/03 02:03:14;;;;;;;32.10;19.70;;;;;;;7.97;58.72;102696.77;1727390;82;21137;-46
2021/03/03 02:05:44;;;;;;;29.95;18.48;;;;;;;7.96;58.69;102695.00;1731359;82;21597;-46
2021/03/03 02:08:34;;;;;;;28.30;18.02;;;;;;;7.95;58.83;102701.47;1723626;82;21289;-46
2021/03/03 02:11:17;;;;;;;30.97;19.10;;;;;;;7.94;58.79;102703.59;1728921;82;21582;-46
2021/03/03 02:13:50;;;;;;;30.77;18.15;;;;;;;7.93;58.80;102710.48;1720576;82;21585;-46
2021/03/03 02:16:18;;;;;;;35.10;19.52;;;;;;;7.92;58.54;102707.45;1727257;82;21137;-46
2021/03/03 02:18:47;;;;;;;28.80;17.27;;;;;;;7.90;58.24;102709.14;1723864;82;21212;-46
2021/03/03 02:21:33;;;;;;;31.15;19.23;;;;;;;7.91;58.12;102705.69;1722863;82;21169;-46
2021/03/03 02:24:10;;;;;;;31.00;17.85;;;;;;;7.91;58.15;102710.88;1724229;82;21717;-46
2021/03/03 02:26:39;;;;;;;28.77;17.90;;;;;;;7.92;58.28;102706.16;1732402;82;21153;-46
2021/03/03 02:29:14;;;;;;;27.42;17.57;;;;;;;7.93;58.26;102707.89;1730765;82;21291;-47
2021/03/03 02:31:44;;;;;;;31.70;18.55;;;;;;;7.94;58.23;102710.07;1675865;84;21166;-46
2021/03/03 02:34:15;;;;;;;31.12;19.12;;;;;;;7.91;58.08;102713.47;1664117;85;21187;-46
2021/03/03 02:36:49;;;;;;;31.42;19.07;;;;;;;7.96;58.09;102715.74;1771464;79;22624;-46
2021/03/03 02:39:18;;;;;;;27.90;17.05;;;;;;;7.93;58.14;102718.26;1740266;82;21159;-46
2021/03/03 02:41:46;;;;;;;28.52;18.98;;;;;;;7.95;58.20;102727.39;1734607;82;21298;-46
2021/03/03 02:44:15;;;;;;;28.87;19.02;;;;;;;7.94;58.13;102725.20;1736087;82;21437;-46
2021/03/03 02:46:44;;;;;;;32.63;19.42;;;;;;;7.96;58.16;102722.64;1735921;82;21169;-47
2021/03/03 02:49:17;;;;;;;31.68;18.75;;;;;;;7.94;58.22;102714.84;1738550;82;21171;-47
2021/03/03 02:51:45;;;;;;;;;;;;;;;7.94;58.18;102719.14;1748251;82;21624;-45
2021/03/03 02:54:14;;;;;;;27.55;17.65;;;;;;;7.93;57.97;102714.81;1738935;82;20399;-46
2021/03/03 02:56:43;;;;;;;30.48;18.23;;;;;;;7.89;57.70;102715.16;1737292;81;21132;-45
2021/03/03 02:59:37;;;;;;;26.23;16.52;;;;;;;7.89;57.52;102715.16;1744451;82;21141;-45
2021/03/03 03:02:09;;;;;;;29.80;18.48;;;;;;;7.93;57.46;102729.92;1740500;82;21593;-45
2021/03/03 03:04:55;;;;;;;25.43;16.55;;;;;;;7.94;57.45;102718.73;1740396;82;21275;-45
2021/03/03 03:07:48;;;;;;;29.23;18.10;;;;;;;7.94;57.60;102727.80;1734651;82;21145;-45
2021/03/03 03:10:35;;;;;;;28.42;17.57;;;;;;;7.98;57.55;102731.32;1738313;82;21251;-45
2021/03/03 03:13:22;;;;;;;28.80;17.92;;;;;;;7.99;57.60;102734.38;1739694;82;21132;-46
2021/03/03 03:16:08;;;;;;;31.07;19.17;;;;;;;8.00;57.55;102730.52;1743943;82;21259;-47
2021/03/03 03:18:45;;;;;;;30.43;20.15;;;;;;;7.97;57.64;102735.66;1702866;82;21144;-47
2021/03/03 03:21:14;;;;;;;28.52;18.42;;;;;;;7.94;57.81;102735.99;1740217;82;21152;-47
2021/03/03 03:23:43;;;;;;;30.48;18.70;;;;;;;7.87;58.08;102738.02;1735028;82;21727;-47
2021/03/03 03:26:12;;;;;;;30.52;18.48;;;;;;;7.85;58.25;102740.56;1723761;82;21152;-47
2021/03/03 03:28:40;;;;;;;34.70;20.45;;;;;;;7.82;58.53;102743.10;1731920;82;21156;-48
2021/03/03 03:31:10;;;;;;;32.83;19.98;;;;;;;7.77;58.58;102752.48;1735329;82;21156;-47
2021/03/03 03:33:39;;;;;;;35.38;20.70;;;;;;;7.74;58.69;102748.55;1742138;82;21157;-47
2021/03/03 03:36:09;;;;;;;29.87;18.75;;;;;;;7.73;58.71;102757.15;1735396;82;21628;-46
2021/03/03 03:38:38;;;;;;;31.68;18.87;;;;;;;7.72;58.58;102759.30;1722184;82;21140;-46
2021/03/03 03:41:06;;;;;;;31.27;19.75;;;;;;;7.72;58.50;102758.42;1739359;82;21147;-47
2021/03/03 03:43:35;;;;;;;32.67;20.72;;;;;;;7.71;58.53;102754.95;1739101;82;21593;-47
2021/03/03 03:46:04;;;;;;;31.65;18.52;;;;;;;7.71;58.65;102754.95;1737565;82;21159;-47
2021/03/03 03:48:37;;;;;;;30.30;19.70;;;;;;;7.71;58.76;102757.95;1736812;82;21184;-47
2021/03/03 03:51:07;;;;;;;33.38;19.73;;;;;;;7.70;58.85;102755.80;1741369;82;21156;-47
2021/03/03 03:53:36;;;;;;;33.53;20.17;;;;;;;7.69;59.00;102759.22;1732268;82;21632;-47
2021/03/03 03:56:07;;;;;;;31.77;20.35;;;;;;;7.69;58.97;102756.63;1742074;82;21137;-47
2021/03/03 03:58:36;;;;;;;;;;;;;;;7.68;59.02;102761.38;1684927;84;21194;-45
2021/03/03 04:01:05;;;;;;;32.58;20.45;;;;;;;7.68;58.87;102762.67;1667876;85;20263;-46
2021/03/03 04:03:34;;;;;;;32.17;19.55;;;;;;;7.69;58.77;102766.99;1663244;85;21174;-46
2021/03/03 04:06:02;;;;;;;29.23;18.90;;;;;;;7.69;58.62;102763.11;1664688;85;21258;-47
2021/03/03 04:08:31;;;;;;;30.80;20.20;;;;;;;7.71;58.49;102764.02;1662692;85;21187;-47
2021/03/03 04:11:00;;;;;;;29.87;19.27;;;;;;;7.70;58.47;102771.35;1662133;84;21261;-47
2021/03/03 04:13:29;;;;;;;31.40;19.55;;;;;;;7.68;58.56;102769.15;1663940;85;21372;-47
2021/03/03 04:15:57;;;;;;;28.70;19.55;;;;;;;7.68;58.39;102771.73;1666059;85;21623;-46
2021/03/03 04:18:25;;;;;;;33.10;21.00;;;;;;;7.67;58.41;102772.98;1662822;85;21346;-47
2021/03/03 04:20:54;;;;;;;31.68;20.00;;;;;;;7.65;58.21;102779.43;1664568;85;21171;-46
2021/03/03 04:23:23;;;;;;;33.18;19.82;;;;;;;7.62;58.32;102778.08;1663830;85;21388;-47
2021/03/03 04:25:51;;;;;;;30.35;19.25;;;;;;;7.61;58.40;102777.61;1667650;85;21186;-46
2021/03/03 04:28:20;;;;;;;32.48;20.62;;;;;;;7.60;58.50;102784.06;1672050;85;21199;-46
2021/03/03 04:30:48;;;;;;;34.13;21.05;;;;;;;7.57;58.52;102794.34;1653015;85;21230;-46
2021/03/03 04:33:16;;;;;;;32.93;20.10;;;;;;;7.54;58.66;102789.99;1662745;85;21175;-46
2021/03/03 04:35:46;;;;;;;32.58;21.02;;;;;;;7.55;58.74;102791.73;1667962;85;21241;-46
2021/03/03 04:38:14;;;;;;;33.38;20.52;;;;;;;7.55;58.83;102800.80;1649983;86;21187;-46
2021/03/03 04:40:43;;;;;;;32.73;20.32;;;;;;;7.55;58.94;102796.91;1667785;85;21159;-47
2021/03/03 04:43:13;;;;;;;34.78;20.95;;;;;;;7.54;59.12;102805.95;1648041;86;21177;-46
2021/03/03 04:45:41;;;;;;;31.85;20.02;;;;;;;7.51;59.07;102805.45;1669193;85;21210;-47
2021/03/03 04:48:11;;;;;;;33.13;20.15;;;;;;;7.48;59.21;102807.95;1647985;86;21267;-46
2021/03/03 04:50:41;;;;;;;32.08;20.48;;;;;;;7.50;59.21;102814.05;1671082;85;21200;-46
2021/03/03 04:53:10;;;;;;;34.33;21.50;;;;;;;7.51;59.21;102817.11;1651081;86;21251;-46
2021/03/03 04:55:39;;;;;;;37.78;20.85;;;;;;;7.52;58.95;102820.17;1705402;82;21156;-46
2021/03/03 04:58:07;;;;;;;34.92;21.15;;;;;;;7.51;58.72;102827.47;1736860;82;21287;-46
2021/03/03 05:00:36;;;;;;;35.75;20.60;;;;;;;7.50;58.68;102833.47;1733702;82;21289;-46
2021/03/03 05:03:05;;;;;;;30.75;19.62;;;;;;;7.48;58.70;102839.03;1732365;82;21155;-46
2021/03/03 05:05:34;;;;;;;35.35;20.88;;;;;;;7.49;58.71;102838.21;1733144;82;21168;-46
2021/03/03 05:08:02;;;;;;;35.65;21.60;;;;;;;7.50;58.65;102836.06;1737966;82;21172;-48
2021/03/03 05:10:31;;;;;;;34.05;20.57;;;;;;;7.51;58.64;102839.13;1736410;82;21573;-46
2021/03/03 05:13:00;;;;;;;34.45;21.85;;;;;;;7.51;58.65;102848.19;1728695;82;21290;-46
2021/03/03 05:15:29;;;;;;;35.78;21.25;;;;;;;7.52;58.44;102846.08;1738911;81;21164;-46
2021/03/03 05:17:58;;;;;;;31.07;19.60;;;;;;;7.49;58.54;102852.46;1730721;82;21181;-46
2021/03/03 05:20:26;;;;;;;32.20;19.85;;;;;;;7.51;58.64;102857.26;1727888;82;21136;-46
2021/03/03 05:22:55;;;;;;;33.95;21.05;;;;;;;7.52;58.53;102858.14;1735344;82;21346;-46
2021/03/03 05:25:24;;;;;;;32.83;20.25;;;;;;;7.51;58.47;102863.73;1732086;82;21221;-46
2021/03/03 05:27:54;;;;;;;34.60;20.40;;;;;;;7.52;58.47;102864.20;1737059;82;21180;-46
2021/03/03 05:30:24;;;;;;;33.08;20.08;;;;;;;7.52;58.53;102871.98;1732850;82;21160;-46
2021/03/03 05:32:52;;;;;;;35.65;22.02;;;;;;;7.50;58.67;102871.48;1732193;82;21561;-47
2021/03/03 05:35:21;;;;;;;39.27;23.47;;;;;;;7.49;58.77;102869.30;1733803;82;21179;-46
2021/03/03 05:37:49;;;;;;;38.48;22.65;;;;;;;7.50;59.14;102875.36;1721967;82;21164;-46
2021/03/03 05:40:18;;;;;;;34.08;21.17;;;;;;;7.49;59.42;102880.07;1729402;82;21597;-45
2021/03/03 05:42:48;;;;;;;39.73;21.45;;;;;;;7.47;59.14;102878.75;1718409;82;21145;-47
2021/03/03 05:45:18;;;;;;;35.73;21.17;;;;;;;7.49;58.98;102883.95;1721138;82;21287;-47
2021/03/03 05:47:46;;;;;;;36.40;21.55;;;;;;;7.51;58.71;102896.11;1728407;82;21276;-46
2021/03/03 05:50:16;;;;;;;34.20;21.42;;;;;;;7.52;58.71;102892.70;1722303;82;21620;-46
2021/03/03 05:52:45;;;;;;;34.38;21.80;;;;;;;7.52;58.57;102890.11;1724060;82;21200;-46
2021/03/03 05:55:15;;;;;;;37.30;22.55;;;;;;;7.52;58.48;102899.17;1724845;82;21200;-46
2021/03/03 05:57:43;;;;;;;33.88;19.80;;;;;;;7.53;58.20;102898.32;1724273;82;21153;-46
2021/03/03 06:00:13;;;;;;;36.55;22.52;;;;;;;7.52;57.99;102901.77;1726655;82;21181;-47
2021/03/03 06:02:42;;;;;;;34.67;21.82;;;;;;;7.56;57.84;102904.01;1728079;82;21179;-46
2021/03/03 06:05:12;;;;;;;33.67;20.85;;;;;;;7.54;57.68;102902.68;1720494;82;21125;-46
2021/03/03 06:07:40;;;;;;;29.98;19.35;;;;;;;7.57;57.64;102905.33;1730799;82;21153;-46
2021/03/03 06:10:11;;;;;;;33.15;18.67;;;;;;;7.60;57.54;102915.78;1725076;82;21181;-46
2021/03/03 06:12:39;;;;;;;28.60;19.20;;;;;;;7.63;57.53;102919.73;1719654;81;21118;-46
2021/03/03 06:15:10;;;;;;;31.60;18.65;;;;;;;7.73;57.24;102920.85;1727346;82;21192;-47
2021/03/03 06:17:38;;;;;;;31.80;18.35;;;;;;;7.90;56.98;102929.47;1723863;82;21171;-46
2021/03/03 06:20:09;;;;;;;30.30;18.60;;;;;;;8.03;56.55;102930.22;1723163;82;21315;-46
2021/03/03 06:22:37;;;;;;;29.92;18.55;;;;;;;8.14;56.13;102931.32;1728342;82;21141;-46
2021/03/03 06:25:21;;;;;;;29.02;18.48;;;;;;;8.30;55.94;102935.19;1720971;82;21302;-46
2021/03/03 06:27:49;;;;;;;27.55;17.73;;;;;;;8.48;55.39;102934.70;1724418;82;21640;-46
2021/03/03 06:30:19;;;;;;;30.35;18.27;;;;;;;8.65;54.94;102942.42;1724984;82;21133;-47
2021/03/03 06:33:08;;;;;;;27.77;17.75;;;;;;;8.79;54.44;102943.58;1716933;82;21145;-47
2021/03/03 06:35:43;;;;;;;28.12;19.02;;;;;;;8.96;54.01;102942.20;1687445;83;21624;-47
2021/03/03 06:38:15;;;;;;;28.57;18.42;;;;;;;9.06;53.26;102935.45;1681264;84;21183;-47
2021/03/03 06:40:53;;;;;;;31.27;19.77;;;;;;;9.02;53.29;102942.31;1681472;84;21646;-46
2021/03/03 06:43:29;;;;;;;29.72;18.55;;;;;;;9.05;53.08;102938.46;1771397;79;22997;-47
2021/03/03 06:46:15;;;;;;;24.55;17.40;;;;;;;9.03;53.23;102947.95;1740698;82;21152;-48
2021/03/03 06:48:45;;;;;;;25.62;16.82;;;;;;;9.07;53.12;102944.56;1737788;82;21159;-47
2021/03/03 06:51:29;;;;;;;29.35;17.92;;;;;;;9.16;52.51;102953.84;1741103;82;21161;-46
2021/03/03 06:54:03;;;;;;;28.15;18.35;;;;;;;9.21;52.60;102947.44;1736195;82;21175;-46
2021/03/03 06:56:41;;;;;;;25.72;17.75;;;;;;;9.26;52.18;102947.96;1733213;82;21156;-47
2021/03/03 06:59:29;;;;;;;29.12;18.82;;;;;;;9.27;52.43;102954.92;1732002;82;21164;-46
2021/03/03 07:02:09;;;;;;;26.70;17.23;;;;;;;9.31;52.43;102955.43;1726761;82;21679;-46
2021/03/03 07:04:46;;;;;;;26.52;17.25;;;;;;;9.33;52.13;102960.23;1746339;82;21580;-46
2021/03/03 07:07:17;;;;;;;26.05;17.05;;;;;;;9.37;52.05;102952.94;1745464;82;21175;-46
2021/03/03 07:09:47;;;;;;;23.77;16.15;;;;;;;9.43;51.99;102960.84;1739117;82;21208;-47
2021/03/03 07:12:23;;;;;;;23.50;15.78;;;;;;;9.47;52.24;102963.95;1743602;82;21164;-47
2021/03/03 07:15:07;;;;;;;25.55;17.35;;;;;;;9.54;51.63;102956.69;1739913;82;21157;-47
2021/03/03 07:17:39;;;;;;;25.57;17.77;;;;;;;9.52;51.74;102959.69;1675315;84;21182;-47
2021/03/03 07:20:14;;;;;;;27.20;17.90;;;;;;;9.50;51.67;102962.69;1667744;86;21185;-47
2021/03/03 07:22:50;;;;;;;28.62;17.80;;;;;;;9.48;51.65;102961.78;1805674;79;23058;-47
2021/03/03 07:25:21;;;;;;;29.77;19.07;;;;;;;9.21;52.04;102971.66;1725036;83;21170;-47
2021/03/03 09:02:13;;;;;;;28.38;16.02;;;;;;;7.20;65.55;102999.74;1806670;77;27996;-47
2021/03/03 09:04:48;;;;;;;23.50;15.35;;;;;;;8.72;59.84;102997.48;1772132;79;21152;-48
2021/03/03 09:07:26;;;;;;;20.23;13.53;;;;;;;9.17;57.67;103002.33;1785041;78;21235;-47
2021/03/03 09:09:57;;;;;;;21.75;13.45;;;;;;;9.33;56.85;103000.50;1777845;79;21153;-47
2021/03/03 09:12:32;;;;;;;;;;;;;;;9.48;56.45;102996.87;1791243;79;21262;-45
2021/03/03 09:15:01;;;;;;;31.07;13.70;;;;;;;9.58;55.74;102996.63;1725448;81;20162;-48
2021/03/03 09:17:31;;;;;;;20.08;13.32;;;;;;;9.68;55.36;103001.14;1713386;81;21207;-46
2021/03/03 09:20:03;;;;;;;17.10;11.95;;;;;;;9.76;54.95;102994.34;1718567;82;21144;-47
2021/03/03 09:22:42;;;;;;;20.48;12.58;;;;;;;9.84;54.80;102996.23;1709391;83;21223;-47
2021/03/03 09:25:16;;;;;;;22.22;13.28;;;;;;;9.92;54.57;102992.86;1731739;81;21204;-47
2021/03/03 09:27:54;;;;;;;21.17;13.38;;;;;;;10.02;54.16;102994.75;1749916;80;21168;-47
2021/03/03 09:30:23;;;;;;;20.77;13.48;;;;;;;10.10;53.94;102995.78;1745830;81;21305;-47
2021/03/03 09:32:52;;;;;;;20.80;11.83;;;;;;;10.16;53.67;102992.86;1718773;82;21658;-47
2021/03/03 09:35:30;;;;;;;21.75;13.03;;;;;;;10.23;53.62;102991.23;1742634;81;21321;-47
2021/03/03 09:37:59;;;;;;;25.65;12.73;;;;;;;10.28;53.43;102992.19;1734389;81;21256;-47
2021/03/03 09:40:33;;;;;;;20.68;13.35;;;;;;;10.36;53.17;102997.08;1743260;80;21158;-47
2021/03/03 09:43:08;;;;;;;23.05;13.72;;;;;;;10.46;52.72;102996.35;1810373;79;22845;-47
2021/03/03 09:45:37;;;;;;;18.50;12.73;;;;;;;10.46;52.47;103000.26;1771700;80;21144;-47
2021/03/03 09:48:08;;;;;;;18.62;12.82;;;;;;;10.51;52.49;102997.27;1777187;80;21148;-47
2021/03/03 09:50:36;;;;;;;16.50;10.70;;;;;;;10.57;52.32;102993.03;1777261;80;21155;-46
2021/03/03 09:53:06;;;;;;;16.75;11.90;;;;;;;10.65;51.94;102994.01;1779544;80;21314;-47
2021/03/03 09:55:35;;;;;;;20.12;11.73;;;;;;;10.71;51.48;102991.05;1783761;80;21147;-47
2021/03/03 09:58:04;;;;;;;17.82;11.75;;;;;;;10.73;51.37;102988.92;1776727;80;21155;-47
2021/03/03 10:00:39;;;;;;;17.73;11.65;;;;;;;10.75;51.30;102980.70;1776879;80;21196;-47
2021/03/03 10:03:12;;;;;;;18.80;12.90;;;;;;;10.78;50.82;102983.78;1776663;80;21302;-47
2021/03/03 10:05:42;;;;;;;20.02;12.82;;;;;;;10.83;50.61;102977.77;1768045;80;21592;-48
2021/03/03 10:08:13;;;;;;;17.37;11.15;;;;;;;10.86;50.15;102977.78;1779483;80;21148;-48
2021/03/03 10:10:46;;;;;;;15.63;10.95;;;;;;;10.91;50.26;102981.34;1780212;80;21282;-47
2021/03/03 10:13:22;;;;;;;17.65;10.85;;;;;;;10.93;50.06;102973.11;1719866;83;21125;-48
2021/03/03 10:15:56;;;;;;;15.20;11.25;;;;;;;10.87;49.94;102976.95;1802434;79;22965;-47
2021/03/03 10:18:25;;;;;;;15.70;10.50;;;;;;;10.79;50.13;102969.89;1718235;82;21344;-47
2021/03/03 10:20:55;;;;;;;16.45;10.93;;;;;;;10.78;50.27;102966.41;1733795;82;21200;-47
2021/03/03 10:23:26;;;;;;;17.90;10.05;;;;;;;10.78;50.17;102970.31;1728432;82;21148;-46
2021/03/03 10:26:06;;;;;;;15.95;10.53;;;;;;;10.80;50.50;102967.30;1736220;82;21121;-47
2021/03/03 10:28:36;;;;;;;14.15;9.68;;;;;;;10.82;50.29;102966.89;1722325;82;21159;-47
2021/03/03 10:31:07;;;;;;;13.00;8.40;;;;;;;10.83;50.55;102958.23;1728223;82;21168;-47
2021/03/03 10:33:39;;;;;;;12.35;9.25;;;;;;;10.88;49.57;102960.90;1739668;82;21573;-46
2021/03/03 10:36:15;;;;;;;13.28;9.13;;;;;;;10.90;49.71;102954.83;1727249;82;21638;-47
2021/03/03 10:38:51;;;;;;;17.35;9.33;;;;;;;10.97;49.49;102952.75;1686432;85;21172;-47
2021/03/03 10:41:30;;;;;;;13.98;9.03;;;;;;;11.16;48.25;102950.80;1803126;79;23065;-47
2021/03/03 10:43:59;;;;;;;15.38;9.75;;;;;;;11.14;48.19;102947.73;1792596;80;21254;-47
2021/03/03 10:46:27;;;;;;;16.20;9.85;;;;;;;11.14;48.34;102951.64;1751079;81;21144;-47
2021/03/03 10:49:14;;;;;;;17.40;10.13;;;;;;;11.20;48.63;102939.55;1743897;81;21109;-47
2021/03/03 10:51:43;;;;;;;16.45;9.63;;;;;;;11.19;49.19;102946.91;1713251;82;21175;-47
2021/03/03 10:54:13;;;;;;;23.98;11.20;;;;;;;11.25;49.30;102941.76;1715351;83;21611;-46
2021/03/03 10:56:43;;;;;;;15.03;9.83;;;;;;;11.33;49.05;102937.49;1699290;83;21284;-47
2021/03/03 11:02:05;;;;;;;13.35;8.98;;;;;;;11.60;48.36;102936.02;1771691;79;23646;-47
2021/03/03 11:04:46;;;;;;;12.47;9.00;;;;;;;11.62;48.33;102941.70;1738834;82;21148;-47
2021/03/03 11:07:17;;;;;;;18.40;9.53;;;;;;;11.69;47.97;102936.11;1745679;82;21794;-47
2021/03/03 11:09:51;;;;;;;13.78;8.45;;;;;;;11.77;47.71;102930.52;1738838;82;21199;-47
2021/03/03 11:12:27;;;;;;;10.75;7.72;;;;;;;11.52;47.98;102933.78;1691159;84;21601;-47
2021/03/03 11:14:56;;;;;;;9.13;6.53;;;;;;;11.51;47.99;102930.72;1678338;83;21236;-47
2021/03/03 11:17:24;;;;;;;9.88;7.00;;;;;;;11.83;46.69;102925.39;1675714;85;21206;-47
2021/03/03 11:19:54;;;;;;;8.40;6.65;;;;;;;11.87;46.25;102929.77;1679741;84;21205;-47
2021/03/03 11:22:22;;;;;;;9.78;6.10;;;;;;;11.89;45.95;102932.80;1675229;85;21202;-47
2021/03/03 11:24:51;;;;;;;8.73;5.92;;;;;;;11.92;45.45;102928.05;1682415;84;21197;-47
2021/03/03 11:27:19;;;;;;;7.67;5.20;;;;;;;11.97;45.11;102923.75;1677857;85;21319;-47
2021/03/03 11:29:48;;;;;;;7.30;5.67;;;;;;;12.03;44.51;102925.09;1688558;84;21199;-47
2021/03/03 11:32:18;;;;;;;7.05;5.40;;;;;;;12.09;44.89;102925.13;1675404;85;21225;-46
2021/03/03 11:34:47;;;;;;;8.78;6.12;;;;;;;12.13;44.29;102916.45;1680108;84;21238;-47
2021/03/03 11:37:16;;;;;;;8.80;6.10;;;;;;;12.14;43.58;102917.75;1678217;85;21358;-47
2021/03/03 11:39:45;;;;;;;10.15;6.00;;;;;;;12.14;43.53;102914.27;1682538;84;21196;-48
2021/03/03 11:42:14;;;;;;;7.30;4.78;;;;;;;12.16;43.08;102914.72;1676621;85;21158;-47
2021/03/03 11:44:42;;;;;;;6.55;4.78;;;;;;;11.89;43.66;102911.93;1684497;84;21614;-48
2021/03/03 11:47:11;;;;;;;8.53;5.72;;;;;;;12.05;43.26;102914.23;1673927;85;21638;-47
2021/03/03 11:49:40;;;;;;;9.88;4.97;;;;;;;12.23;42.68;102913.02;1680569;84;21177;-47
2021/03/03 11:52:08;;;;;;;6.67;4.78;;;;;;;12.28;42.78;102911.33;1665991;85;21202;-47
2021/03/03 11:54:37;;;;;;;6.70;4.70;;;;;;;12.31;42.55;102913.94;1676484;84;21522;-48
2021/03/03 11:57:07;;;;;;;6.33;4.90;;;;;;;12.38;42.18;102918.34;1678095;85;21327;-47
2021/03/03 11:59:35;;;;;;;7.62;4.92;;;;;;;12.44;41.76;102910.53;1686133;84;21190;-47
2021/03/03 12:02:05;;;;;;;6.83;4.50;;;;;;;12.48;41.42;102916.21;1643784;84;21609;-47
2021/03/03 12:04:34;;;;;;;6.03;4.40;;;;;;;12.51;41.40;102909.68;1618133;88;21207;-47
2021/03/03 12:07:03;;;;;;;9.10;4.30;;;;;;;12.55;41.88;102914.50;1632968;87;21403;-47
2021/03/03 12:09:33;;;;;;;7.70;4.80;;;;;;;12.60;41.83;102903.63;1674322;85;21623;-47
2021/03/03 12:12:02;;;;;;;8.43;5.25;;;;;;;12.65;41.59;102913.22;1689146;84;21209;-47
2021/03/03 12:14:30;;;;;;;8.68;4.55;;;;;;;12.70;41.42;102916.73;1697146;82;21184;-47
2021/03/03 12:16:59;;;;;;;8.53;5.03;;;;;;;12.74;40.68;102913.27;1696731;84;21137;-46
2021/03/03 12:19:28;;;;;;;8.80;4.85;;;;;;;12.79;40.16;102921.13;1667688;85;21170;-47
2021/03/03 12:21:57;;;;;;;8.18;5.17;;;;;;;12.83;40.35;102921.57;1697715;84;21325;-47
2021/03/03 12:24:26;;;;;;;7.33;5.92;;;;;;;12.76;40.73;102918.48;1698266;84;21183;-47
2021/03/03 12:26:55;;;;;;;7.70;5.10;;;;;;;12.87;40.84;102912.45;1686708;84;21189;-47
2021/03/03 12:29:24;;;;;;;8.35;5.05;;;;;;;12.92;40.04;102909.85;1704373;84;21177;-47
2021/03/03 12:31:55;;;;;;;7.05;4.92;;;;;;;12.96;39.72;102910.30;1676740;85;21164;-47
2021/03/03 12:34:25;;;;;;;7.80;5.78;;;;;;;13.01;39.86;102908.13;1701203;83;21575;-47
2021/03/03 12:36:53;;;;;;;6.53;4.90;;;;;;;13.06;40.20;102914.25;1689568;84;21168;-47
2021/03/03 12:39:22;;;;;;;8.33;5.17;;;;;;;13.06;40.33;102913.40;1671649;85;21307;-47
2021/03/03 12:41:50;;;;;;;6.15;4.65;;;;;;;13.08;40.23;102910.78;1697825;84;21576;-47
2021/03/03 12:44:19;;;;;;;6.65;4.17;;;;;;;13.12;39.79;102907.30;1696640;84;21160;-47
2021/03/03 12:46:47;;;;;;;6.10;4.33;;;;;;;13.13;39.54;102894.23;1673183;85;21313;-47
2021/03/03 12:49:16;;;;;;;7.37;4.95;;;;;;;13.19;39.34;102894.70;1696742;84;21342;-47
2021/03/03 12:51:44;;;;;;;8.30;4.50;;;;;;;13.22;39.25;102895.98;1701769;84;21620;-47
2021/03/03 12:54:13;;;;;;;7.62;4.10;;;;;;;13.28;39.58;102893.38;1700859;84;21315;-47
2021/03/03 12:56:42;;;;;;;7.78;4.72;;;;;;;13.30;40.07;102892.95;1687714;84;21164;-47
2021/03/03 12:59:10;;;;;;;7.10;4.62;;;;;;;13.32;39.65;102895.13;1699774;84;21382;-47
2021/03/03 13:01:39;;;;;;;6.80;4.55;;;;;;;13.32;39.17;102897.73;1705329;83;21134;-48
2021/03/03 13:04:07;;;;;;;6.40;4.28;;;;;;;13.32;39.34;102887.28;1708205;83;21715;-47
2021/03/03 13:06:36;;;;;;;5.80;4.20;;;;;;;13.32;39.46;102889.89;1702619;83;21272;-47
2021/03/03 13:09:05;;;;;;;5.90;4.47;;;;;;;13.32;39.44;102889.89;1711851;83;21273;-48
2021/03/03 13:11:35;;;;;;;7.27;4.53;;;;;;;13.32;38.83;102901.23;1700165;83;21143;-48
2021/03/03 13:14:04;;;;;;;5.30;4.40;;;;;;;13.31;39.06;102897.31;1711276;83;21583;-48